Aeroporto :
LOGIN :

Iscrizione | Disclaimer

   EN    FR    IT 

 










Sommario :    VFR   VFR Marginale   IFR   IFR Intensivo   IFR Molto Intensivo
Visibilità : 
Base nubi : 
>= 8 km
>= 3000ft
5 / 8 km
1000 / 3000 ft
1500m / 5 km
500 / 1000 ft
800 / 1500m
200 / 500 ft
< 800m
< 200 ft
Simboli :   Temporali  Nebbia  Neve Forte  Precipitazioni Forti  Vento > 20 kt
SIGMETs :   Varie  Temporali  Ghiacco  Turbolenza  Onda orograficha  Ceneri Vulcaniche






- Altitudine del aeroporto : 82 ft
- Codice IATA : ALG


DAAG - Alger Houari Boumedienne

ULTIMO METAR :
  • 251330Z 32011KT 9999 FEW023 SCT200 20/12 Q1014

METARs OBSOLETI :
  • 251300Z 30009KT 260V330 9999 FEW023 SCT200 20/12 Q1014
  • 251230Z 30009KT 270V330 9999 FEW023 SCT200 19/12 Q1015
  • 251200Z 30010KT 9999 FEW023 SCT200 19/12 Q1016
  • 251130Z 31010KT 9999 FEW023 SCT200 19/12 Q1016
  • 251100Z 31011KT 9999 FEW023 SCT200 18/11 Q1017

TAF TAF DAAG
Valido dal 25 a 12 ore il 26 a 12 ore UTC


251100Z 2512/2612 28012KT 9999 FEW023 SCT200
PROB40
TEMPO 2512/2522 30015G30KT FEW023TCU
TEMPO 2522/2609 4000 -RA FEW023CB



MetMap, La meteo Aeronautica in un colpo d'occhio ! - Copyright ORBIFLY Dicembre 2007 - Disclaimer

ORBIFLY MET'MAP TEAM :

Programmazione e sviluppo : Alexandra Zaïnal
Concezione : Baudouin d'Aumeries
Aiuto per la programmazione : Marc-Olivier Méhu
Supporto tecnico e logistico : Manuel Goepfert
Aiuto per la traduzione : Arnaldo La Scala

Contatto : metmap@orbifly.com




FONTI E CREDITI :

   NOAA